sensor_id;sensor_type;location;lat;lon;timestamp;temperature;humidity
18613;DHT22;9436;52.152;21.032;2022-09-17T00:02:26;11.30;99.90
18613;DHT22;9436;52.152;21.032;2022-09-17T00:04:55;11.40;99.90
18613;DHT22;9436;52.152;21.032;2022-09-17T00:07:22;11.40;99.90
18613;DHT22;9436;52.152;21.032;2022-09-17T00:09:49;11.40;99.90
18613;DHT22;9436;52.152;21.032;2022-09-17T00:12:16;11.50;99.90
18613;DHT22;9436;52.152;21.032;2022-09-17T00:14:44;11.40;99.90
18613;DHT22;9436;52.152;21.032;2022-09-17T00:17:11;11.40;99.90
18613;DHT22;9436;52.152;21.032;2022-09-17T00:19:38;11.40;99.90
18613;DHT22;9436;52.152;21.032;2022-09-17T00:22:05;11.50;99.90
18613;DHT22;9436;52.152;21.032;2022-09-17T00:24:32;11.50;99.90
18613;DHT22;9436;52.152;21.032;2022-09-17T00:26:59;11.40;99.90
18613;DHT22;9436;52.152;21.032;2022-09-17T00:29:26;11.30;99.90
18613;DHT22;9436;52.152;21.032;2022-09-17T00:31:54;11.40;99.90
18613;DHT22;9436;52.152;21.032;2022-09-17T00:34:21;11.30;99.90
18613;DHT22;9436;52.152;21.032;2022-09-17T00:36:48;11.30;99.90
18613;DHT22;9436;52.152;21.032;2022-09-17T00:39:15;11.20;99.90
18613;DHT22;9436;52.152;21.032;2022-09-17T00:41:43;11.20;99.90
18613;DHT22;9436;52.152;21.032;2022-09-17T00:44:40;11.20;99.90
18613;DHT22;9436;52.152;21.032;2022-09-17T00:47:16;11.30;99.90
18613;DHT22;9436;52.152;21.032;2022-09-17T00:49:46;11.30;99.90
18613;DHT22;9436;52.152;21.032;2022-09-17T00:52:15;11.10;99.90
18613;DHT22;9436;52.152;21.032;2022-09-17T00:54:45;11.10;99.90
18613;DHT22;9436;52.152;21.032;2022-09-17T00:57:15;11.10;99.90
18613;DHT22;9436;52.152;21.032;2022-09-17T00:59:43;11.10;99.90
18613;DHT22;9436;52.152;21.032;2022-09-17T01:02:10;11.10;99.90
18613;DHT22;9436;52.152;21.032;2022-09-17T01:04:39;11.20;99.90
18613;DHT22;9436;52.152;21.032;2022-09-17T01:07:15;11.20;99.90
18613;DHT22;9436;52.152;21.032;2022-09-17T01:09:51;11.10;99.90
18613;DHT22;9436;52.152;21.032;2022-09-17T01:12:40;11.00;99.90
18613;DHT22;9436;52.152;21.032;2022-09-17T01:15:20;11.10;99.90
18613;DHT22;9436;52.152;21.032;2022-09-17T01:17:58;11.10;99.90
18613;DHT22;9436;52.152;21.032;2022-09-17T01:27:06;11.10;99.90
18613;DHT22;9436;52.152;21.032;2022-09-17T01:29:51;11.10;99.90
18613;DHT22;9436;52.152;21.032;2022-09-17T01:32:26;11.10;99.90
18613;DHT22;9436;52.152;21.032;2022-09-17T01:35:00;11.10;99.90
18613;DHT22;9436;52.152;21.032;2022-09-17T01:37:31;11.10;99.90
18613;DHT22;9436;52.152;21.032;2022-09-17T01:40:04;11.10;99.90
18613;DHT22;9436;52.152;21.032;2022-09-17T01:42:38;11.10;99.90
18613;DHT22;9436;52.152;21.032;2022-09-17T01:45:10;11.00;99.90
18613;DHT22;9436;52.152;21.032;2022-09-17T01:47:45;10.90;99.90
18613;DHT22;9436;52.152;21.032;2022-09-17T01:50:16;10.90;99.90
18613;DHT22;9436;52.152;21.032;2022-09-17T01:52:46;10.90;99.90
18613;DHT22;9436;52.152;21.032;2022-09-17T01:55:16;10.80;99.90
18613;DHT22;9436;52.152;21.032;2022-09-17T01:57:46;10.80;99.90
18613;DHT22;9436;52.152;21.032;2022-09-17T02:00:16;10.70;99.90
18613;DHT22;9436;52.152;21.032;2022-09-17T02:02:48;10.70;99.90
18613;DHT22;9436;52.152;21.032;2022-09-17T02:05:19;10.60;99.90
18613;DHT22;9436;52.152;21.032;2022-09-17T02:07:52;10.60;99.90
18613;DHT22;9436;52.152;21.032;2022-09-17T02:10:23;10.60;99.90
18613;DHT22;9436;52.152;21.032;2022-09-17T02:12:55;10.60;99.90
18613;DHT22;9436;52.152;21.032;2022-09-17T02:15:29;10.50;99.90
18613;DHT22;9436;52.152;21.032;2022-09-17T02:18:03;10.50;99.90
18613;DHT22;9436;52.152;21.032;2022-09-17T02:20:39;10.50;99.90
18613;DHT22;9436;52.152;21.032;2022-09-17T02:23:11;10.40;99.90
18613;DHT22;9436;52.152;21.032;2022-09-17T02:25:43;10.40;99.90
18613;DHT22;9436;52.152;21.032;2022-09-17T02:28:16;10.40;99.90
18613;DHT22;9436;52.152;21.032;2022-09-17T02:30:45;10.30;99.90
18613;DHT22;9436;52.152;21.032;2022-09-17T02:33:14;10.20;99.90
18613;DHT22;9436;52.152;21.032;2022-09-17T02:35:41;10.30;99.90
18613;DHT22;9436;52.152;21.032;2022-09-17T02:38:10;10.20;99.90
18613;DHT22;9436;52.152;21.032;2022-09-17T02:40:43;10.20;99.90
18613;DHT22;9436;52.152;21.032;2022-09-17T02:43:20;10.30;99.90
18613;DHT22;9436;52.152;21.032;2022-09-17T02:45:58;10.30;99.90
18613;DHT22;9436;52.152;21.032;2022-09-17T02:51:32;10.30;99.90
18613;DHT22;9436;52.152;21.032;2022-09-17T02:54:08;10.30;99.90
18613;DHT22;9436;52.152;21.032;2022-09-17T02:56:45;10.30;99.90
18613;DHT22;9436;52.152;21.032;2022-09-17T02:59:17;10.30;99.90
18613;DHT22;9436;52.152;21.032;2022-09-17T03:01:51;10.20;99.90
18613;DHT22;9436;52.152;21.032;2022-09-17T03:04:24;10.10;99.90
18613;DHT22;9436;52.152;21.032;2022-09-17T03:06:53;10.10;99.90
18613;DHT22;9436;52.152;21.032;2022-09-17T03:09:21;10.20;99.90
18613;DHT22;9436;52.152;21.032;2022-09-17T03:11:48;10.10;99.90
18613;DHT22;9436;52.152;21.032;2022-09-17T03:14:15;10.10;99.90
18613;DHT22;9436;52.152;21.032;2022-09-17T03:16:45;10.10;99.90
18613;DHT22;9436;52.152;21.032;2022-09-17T03:19:12;10.10;99.90
18613;DHT22;9436;52.152;21.032;2022-09-17T03:21:40;10.00;99.90
18613;DHT22;9436;52.152;21.032;2022-09-17T03:24:09;10.00;99.90
18613;DHT22;9436;52.152;21.032;2022-09-17T03:26:36;10.10;99.90
18613;DHT22;9436;52.152;21.032;2022-09-17T03:29:04;10.10;99.90
18613;DHT22;9436;52.152;21.032;2022-09-17T03:31:31;10.20;99.90
18613;DHT22;9436;52.152;21.032;2022-09-17T03:33:57;10.10;99.90
18613;DHT22;9436;52.152;21.032;2022-09-17T03:36:24;10.10;99.90
18613;DHT22;9436;52.152;21.032;2022-09-17T03:38:54;10.10;99.90
18613;DHT22;9436;52.152;21.032;2022-09-17T03:41:21;10.00;99.90
18613;DHT22;9436;52.152;21.032;2022-09-17T03:43:49;10.00;99.90
18613;DHT22;9436;52.152;21.032;2022-09-17T03:46:16;10.00;99.90
18613;DHT22;9436;52.152;21.032;2022-09-17T03:48:44;10.10;99.90
18613;DHT22;9436;52.152;21.032;2022-09-17T03:51:11;10.00;99.90
18613;DHT22;9436;52.152;21.032;2022-09-17T03:53:38;10.00;99.90
18613;DHT22;9436;52.152;21.032;2022-09-17T03:56:06;10.10;99.90
18613;DHT22;9436;52.152;21.032;2022-09-17T03:58:34;10.10;99.90
18613;DHT22;9436;52.152;21.032;2022-09-17T04:01:01;10.10;99.90
18613;DHT22;9436;52.152;21.032;2022-09-17T04:03:29;10.10;99.90
18613;DHT22;9436;52.152;21.032;2022-09-17T04:05:56;10.10;99.90
18613;DHT22;9436;52.152;21.032;2022-09-17T04:08:24;10.10;99.90
18613;DHT22;9436;52.152;21.032;2022-09-17T04:10:51;10.10;99.90
18613;DHT22;9436;52.152;21.032;2022-09-17T04:13:19;10.00;99.90
18613;DHT22;9436;52.152;21.032;2022-09-17T04:15:47;9.90;99.90
18613;DHT22;9436;52.152;21.032;2022-09-17T04:18:14;9.90;99.90
18613;DHT22;9436;52.152;21.032;2022-09-17T04:20:41;9.90;99.90
18613;DHT22;9436;52.152;21.032;2022-09-17T04:23:10;10.00;99.90
18613;DHT22;9436;52.152;21.032;2022-09-17T04:25:37;9.90;99.90
18613;DHT22;9436;52.152;21.032;2022-09-17T04:28:04;9.90;99.90
18613;DHT22;9436;52.152;21.032;2022-09-17T04:30:33;10.00;99.90
18613;DHT22;9436;52.152;21.032;2022-09-17T04:33:00;9.90;99.90
18613;DHT22;9436;52.152;21.032;2022-09-17T04:35:27;9.90;99.90
18613;DHT22;9436;52.152;21.032;2022-09-17T04:37:54;9.90;99.90
18613;DHT22;9436;52.152;21.032;2022-09-17T04:40:23;9.90;99.90
18613;DHT22;9436;52.152;21.032;2022-09-17T04:42:51;9.80;99.90
18613;DHT22;9436;52.152;21.032;2022-09-17T04:45:18;9.90;99.90
18613;DHT22;9436;52.152;21.032;2022-09-17T04:47:47;9.90;99.90
18613;DHT22;9436;52.152;21.032;2022-09-17T04:50:16;9.90;99.90
18613;DHT22;9436;52.152;21.032;2022-09-17T04:52:43;10.00;99.90
18613;DHT22;9436;52.152;21.032;2022-09-17T04:55:11;10.00;99.90
18613;DHT22;9436;52.152;21.032;2022-09-17T04:57:38;10.00;99.90
18613;DHT22;9436;52.152;21.032;2022-09-17T05:00:06;9.90;99.90
18613;DHT22;9436;52.152;21.032;2022-09-17T05:02:34;9.90;99.90
18613;DHT22;9436;52.152;21.032;2022-09-17T05:05:03;10.00;99.90
18613;DHT22;9436;52.152;21.032;2022-09-17T05:07:30;9.90;99.90
18613;DHT22;9436;52.152;21.032;2022-09-17T05:09:57;9.90;99.90
18613;DHT22;9436;52.152;21.032;2022-09-17T05:12:24;10.00;99.90
18613;DHT22;9436;52.152;21.032;2022-09-17T05:14:51;9.90;99.90
18613;DHT22;9436;52.152;21.032;2022-09-17T05:17:18;9.90;99.90
18613;DHT22;9436;52.152;21.032;2022-09-17T05:19:45;10.00;99.90
18613;DHT22;9436;52.152;21.032;2022-09-17T05:22:13;10.00;99.90
18613;DHT22;9436;52.152;21.032;2022-09-17T05:24:40;10.00;99.90
18613;DHT22;9436;52.152;21.032;2022-09-17T05:27:08;10.00;99.90
18613;DHT22;9436;52.152;21.032;2022-09-17T05:29:35;10.00;99.90
18613;DHT22;9436;52.152;21.032;2022-09-17T05:32:02;10.20;99.90
18613;DHT22;9436;52.152;21.032;2022-09-17T05:34:29;10.30;99.90
18613;DHT22;9436;52.152;21.032;2022-09-17T05:36:56;10.40;99.90
18613;DHT22;9436;52.152;21.032;2022-09-17T05:39:25;10.40;99.90
18613;DHT22;9436;52.152;21.032;2022-09-17T05:41:52;10.40;99.90
18613;DHT22;9436;52.152;21.032;2022-09-17T05:44:19;10.50;99.90
18613;DHT22;9436;52.152;21.032;2022-09-17T05:46:47;10.60;99.90
18613;DHT22;9436;52.152;21.032;2022-09-17T05:49:14;10.70;99.90
18613;DHT22;9436;52.152;21.032;2022-09-17T05:51:41;10.70;99.90
18613;DHT22;9436;52.152;21.032;2022-09-17T05:54:08;10.80;99.90
18613;DHT22;9436;52.152;21.032;2022-09-17T05:56:36;10.90;99.90
18613;DHT22;9436;52.152;21.032;2022-09-17T05:59:03;11.00;99.90
18613;DHT22;9436;52.152;21.032;2022-09-17T06:01:30;11.10;99.90
18613;DHT22;9436;52.152;21.032;2022-09-17T06:03:58;11.10;99.90
18613;DHT22;9436;52.152;21.032;2022-09-17T06:06:27;11.20;99.90
18613;DHT22;9436;52.152;21.032;2022-09-17T06:08:55;11.30;99.90
18613;DHT22;9436;52.152;21.032;2022-09-17T06:11:24;11.40;99.90
18613;DHT22;9436;52.152;21.032;2022-09-17T06:13:53;11.50;99.90
18613;DHT22;9436;52.152;21.032;2022-09-17T06:16:21;11.60;99.90
18613;DHT22;9436;52.152;21.032;2022-09-17T06:18:48;11.70;99.90
18613;DHT22;9436;52.152;21.032;2022-09-17T06:21:18;11.80;99.90
18613;DHT22;9436;52.152;21.032;2022-09-17T06:23:46;11.80;99.90
18613;DHT22;9436;52.152;21.032;2022-09-17T06:26:13;11.90;99.90
18613;DHT22;9436;52.152;21.032;2022-09-17T06:28:41;12.00;99.90
18613;DHT22;9436;52.152;21.032;2022-09-17T06:31:11;12.20;99.90
18613;DHT22;9436;52.152;21.032;2022-09-17T06:33:38;12.30;99.90
18613;DHT22;9436;52.152;21.032;2022-09-17T06:36:06;12.40;99.90
18613;DHT22;9436;52.152;21.032;2022-09-17T06:38:35;12.50;99.90
18613;DHT22;9436;52.152;21.032;2022-09-17T06:41:03;12.50;99.90
18613;DHT22;9436;52.152;21.032;2022-09-17T06:43:30;12.50;99.90
18613;DHT22;9436;52.152;21.032;2022-09-17T06:45:58;12.70;99.90
18613;DHT22;9436;52.152;21.032;2022-09-17T06:48:29;12.70;99.90
18613;DHT22;9436;52.152;21.032;2022-09-17T06:51:00;12.80;99.90
18613;DHT22;9436;52.152;21.032;2022-09-17T06:53:28;12.70;99.90
18613;DHT22;9436;52.152;21.032;2022-09-17T06:55:56;12.80;99.90
18613;DHT22;9436;52.152;21.032;2022-09-17T06:58:23;13.00;99.90
18613;DHT22;9436;52.152;21.032;2022-09-17T07:00:50;13.00;99.90
18613;DHT22;9436;52.152;21.032;2022-09-17T07:03:17;13.00;99.90
18613;DHT22;9436;52.152;21.032;2022-09-17T07:05:45;13.10;99.90
18613;DHT22;9436;52.152;21.032;2022-09-17T07:08:12;13.20;99.90
18613;DHT22;9436;52.152;21.032;2022-09-17T07:10:39;13.20;99.90
18613;DHT22;9436;52.152;21.032;2022-09-17T07:13:06;13.30;99.90
18613;DHT22;9436;52.152;21.032;2022-09-17T07:15:33;13.30;99.90
18613;DHT22;9436;52.152;21.032;2022-09-17T07:18:06;13.20;99.90
18613;DHT22;9436;52.152;21.032;2022-09-17T07:20:34;13.20;99.90
18613;DHT22;9436;52.152;21.032;2022-09-17T07:23:02;13.30;99.90
18613;DHT22;9436;52.152;21.032;2022-09-17T07:25:29;13.10;99.90
18613;DHT22;9436;52.152;21.032;2022-09-17T07:27:56;13.00;99.90
18613;DHT22;9436;52.152;21.032;2022-09-17T07:30:24;12.90;99.90
18613;DHT22;9436;52.152;21.032;2022-09-17T07:32:51;13.00;99.90
18613;DHT22;9436;52.152;21.032;2022-09-17T07:35:18;13.10;99.90
18613;DHT22;9436;52.152;21.032;2022-09-17T07:37:45;13.10;99.90
18613;DHT22;9436;52.152;21.032;2022-09-17T07:40:14;13.10;99.90
18613;DHT22;9436;52.152;21.032;2022-09-17T07:42:41;12.90;99.90
18613;DHT22;9436;52.152;21.032;2022-09-17T07:45:08;12.90;99.90
18613;DHT22;9436;52.152;21.032;2022-09-17T07:47:39;13.10;99.90
18613;DHT22;9436;52.152;21.032;2022-09-17T07:50:07;13.10;99.90
18613;DHT22;9436;52.152;21.032;2022-09-17T07:52:34;13.00;99.90
18613;DHT22;9436;52.152;21.032;2022-09-17T07:55:01;13.10;99.90
18613;DHT22;9436;52.152;21.032;2022-09-17T07:57:30;12.90;99.90
18613;DHT22;9436;52.152;21.032;2022-09-17T07:59:57;12.90;99.90
18613;DHT22;9436;52.152;21.032;2022-09-17T08:02:24;12.70;99.90
18613;DHT22;9436;52.152;21.032;2022-09-17T08:04:51;12.60;99.90
18613;DHT22;9436;52.152;21.032;2022-09-17T08:07:18;12.80;99.90
18613;DHT22;9436;52.152;21.032;2022-09-17T08:09:45;12.90;99.90
18613;DHT22;9436;52.152;21.032;2022-09-17T08:12:12;12.80;99.90
18613;DHT22;9436;52.152;21.032;2022-09-17T08:14:41;12.90;99.90
18613;DHT22;9436;52.152;21.032;2022-09-17T08:17:08;13.10;99.90
18613;DHT22;9436;52.152;21.032;2022-09-17T08:19:35;13.20;99.90
18613;DHT22;9436;52.152;21.032;2022-09-17T08:22:02;13.30;99.90
18613;DHT22;9436;52.152;21.032;2022-09-17T08:24:29;13.50;99.90
18613;DHT22;9436;52.152;21.032;2022-09-17T08:26:56;13.40;99.90
18613;DHT22;9436;52.152;21.032;2022-09-17T08:29:23;13.50;99.90
18613;DHT22;9436;52.152;21.032;2022-09-17T08:31:52;13.50;99.90
18613;DHT22;9436;52.152;21.032;2022-09-17T08:34:19;13.40;99.90
18613;DHT22;9436;52.152;21.032;2022-09-17T08:36:46;13.30;99.90
18613;DHT22;9436;52.152;21.032;2022-09-17T08:39:13;13.20;99.90
18613;DHT22;9436;52.152;21.032;2022-09-17T08:41:50;13.10;99.90
18613;DHT22;9436;52.152;21.032;2022-09-17T08:44:23;13.20;99.90
18613;DHT22;9436;52.152;21.032;2022-09-17T08:46:56;13.30;99.90
18613;DHT22;9436;52.152;21.032;2022-09-17T08:49:29;13.20;99.90
18613;DHT22;9436;52.152;21.032;2022-09-17T08:52:16;13.30;99.90
18613;DHT22;9436;52.152;21.032;2022-09-17T08:54:55;13.30;99.90
18613;DHT22;9436;52.152;21.032;2022-09-17T08:57:28;13.30;99.90
18613;DHT22;9436;52.152;21.032;2022-09-17T09:00:03;13.50;99.90
18613;DHT22;9436;52.152;21.032;2022-09-17T09:02:44;13.60;99.90
18613;DHT22;9436;52.152;21.032;2022-09-17T09:05:18;13.80;99.90
18613;DHT22;9436;52.152;21.032;2022-09-17T09:07:50;13.80;99.90
18613;DHT22;9436;52.152;21.032;2022-09-17T09:10:20;13.90;99.90
18613;DHT22;9436;52.152;21.032;2022-09-17T09:12:50;13.90;99.90
18613;DHT22;9436;52.152;21.032;2022-09-17T09:15:32;13.70;99.90
18613;DHT22;9436;52.152;21.032;2022-09-17T09:18:12;13.60;99.90
18613;DHT22;9436;52.152;21.032;2022-09-17T09:20:47;13.60;99.90
18613;DHT22;9436;52.152;21.032;2022-09-17T09:23:18;13.70;99.90
18613;DHT22;9436;52.152;21.032;2022-09-17T09:25:53;13.60;99.90
18613;DHT22;9436;52.152;21.032;2022-09-17T09:28:37;13.60;99.90
18613;DHT22;9436;52.152;21.032;2022-09-17T09:31:16;13.60;99.90
18613;DHT22;9436;52.152;21.032;2022-09-17T09:33:47;13.70;99.90
18613;DHT22;9436;52.152;21.032;2022-09-17T09:36:16;13.80;99.90
18613;DHT22;9436;52.152;21.032;2022-09-17T09:38:51;14.00;99.90
18613;DHT22;9436;52.152;21.032;2022-09-17T09:41:26;14.10;99.90
18613;DHT22;9436;52.152;21.032;2022-09-17T09:44:00;14.20;99.90
18613;DHT22;9436;52.152;21.032;2022-09-17T09:46:46;14.20;99.90
18613;DHT22;9436;52.152;21.032;2022-09-17T09:49:28;14.30;99.90
18613;DHT22;9436;52.152;21.032;2022-09-17T09:52:08;14.30;99.90
18613;DHT22;9436;52.152;21.032;2022-09-17T09:54:51;14.40;99.90
18613;DHT22;9436;52.152;21.032;2022-09-17T09:57:29;14.40;99.90
18613;DHT22;9436;52.152;21.032;2022-09-17T10:00:21;14.50;99.90
18613;DHT22;9436;52.152;21.032;2022-09-17T10:02:52;14.40;99.90
18613;DHT22;9436;52.152;21.032;2022-09-17T10:05:22;14.40;99.90
18613;DHT22;9436;52.152;21.032;2022-09-17T10:07:50;14.50;99.90
18613;DHT22;9436;52.152;21.032;2022-09-17T10:10:17;14.60;99.90
18613;DHT22;9436;52.152;21.032;2022-09-17T10:12:44;14.70;99.90
18613;DHT22;9436;52.152;21.032;2022-09-17T10:15:23;14.60;99.90
18613;DHT22;9436;52.152;21.032;2022-09-17T10:18:10;14.30;99.90
18613;DHT22;9436;52.152;21.032;2022-09-17T10:20:54;14.30;99.90
18613;DHT22;9436;52.152;21.032;2022-09-17T10:23:23;14.30;99.90
18613;DHT22;9436;52.152;21.032;2022-09-17T10:25:51;14.60;99.90
18613;DHT22;9436;52.152;21.032;2022-09-17T10:28:41;14.70;99.90
18613;DHT22;9436;52.152;21.032;2022-09-17T10:31:10;14.80;99.90
18613;DHT22;9436;52.152;21.032;2022-09-17T10:33:40;14.70;99.90
18613;DHT22;9436;52.152;21.032;2022-09-17T10:36:35;14.70;99.90
18613;DHT22;9436;52.152;21.032;2022-09-17T10:39:28;14.70;99.90
18613;DHT22;9436;52.152;21.032;2022-09-17T10:41:56;14.70;99.90
18613;DHT22;9436;52.152;21.032;2022-09-17T10:44:25;14.60;99.90
18613;DHT22;9436;52.152;21.032;2022-09-17T10:46:52;14.40;99.90
18613;DHT22;9436;52.152;21.032;2022-09-17T10:49:30;14.40;99.90
18613;DHT22;9436;52.152;21.032;2022-09-17T10:52:07;14.30;99.90
18613;DHT22;9436;52.152;21.032;2022-09-17T10:55:00;14.40;99.90
18613;DHT22;9436;52.152;21.032;2022-09-17T10:57:42;14.40;99.90
18613;DHT22;9436;52.152;21.032;2022-09-17T11:00:16;14.30;99.90
18613;DHT22;9436;52.152;21.032;2022-09-17T11:06:17;14.50;99.90
18613;DHT22;9436;52.152;21.032;2022-09-17T11:09:00;14.50;99.90
18613;DHT22;9436;52.152;21.032;2022-09-17T11:11:39;14.50;99.90
18613;DHT22;9436;52.152;21.032;2022-09-17T11:14:15;14.60;99.90
18613;DHT22;9436;52.152;21.032;2022-09-17T11:16:51;14.70;99.90
18613;DHT22;9436;52.152;21.032;2022-09-17T11:19:29;14.80;99.90
18613;DHT22;9436;52.152;21.032;2022-09-17T11:22:08;14.90;99.90
18613;DHT22;9436;52.152;21.032;2022-09-17T11:25:00;15.00;99.90
18613;DHT22;9436;52.152;21.032;2022-09-17T11:27:43;15.00;99.90
18613;DHT22;9436;52.152;21.032;2022-09-17T11:30:16;15.10;99.90
18613;DHT22;9436;52.152;21.032;2022-09-17T11:33:12;14.90;99.90
18613;DHT22;9436;52.152;21.032;2022-09-17T11:35:46;14.90;99.90
18613;DHT22;9436;52.152;21.032;2022-09-17T11:38:19;14.80;99.90
18613;DHT22;9436;52.152;21.032;2022-09-17T11:40:54;14.70;99.90
18613;DHT22;9436;52.152;21.032;2022-09-17T11:43:26;14.70;99.90
18613;DHT22;9436;52.152;21.032;2022-09-17T11:46:04;14.70;99.90
18613;DHT22;9436;52.152;21.032;2022-09-17T11:48:37;14.60;99.90
18613;DHT22;9436;52.152;21.032;2022-09-17T11:51:21;14.50;99.90
18613;DHT22;9436;52.152;21.032;2022-09-17T11:53:51;14.70;99.90
18613;DHT22;9436;52.152;21.032;2022-09-17T11:56:25;14.80;99.90
18613;DHT22;9436;52.152;21.032;2022-09-17T11:58:56;14.80;99.90
18613;DHT22;9436;52.152;21.032;2022-09-17T12:01:30;14.90;99.90
18613;DHT22;9436;52.152;21.032;2022-09-17T12:04:01;15.00;99.90
18613;DHT22;9436;52.152;21.032;2022-09-17T12:06:36;15.10;99.90
18613;DHT22;9436;52.152;21.032;2022-09-17T12:09:13;15.20;99.90
18613;DHT22;9436;52.152;21.032;2022-09-17T12:11:48;15.30;99.90
18613;DHT22;9436;52.152;21.032;2022-09-17T12:14:22;15.20;99.90
18613;DHT22;9436;52.152;21.032;2022-09-17T12:16:54;15.40;99.90
18613;DHT22;9436;52.152;21.032;2022-09-17T12:19:26;15.50;99.90
18613;DHT22;9436;52.152;21.032;2022-09-17T12:21:56;15.30;99.90
18613;DHT22;9436;52.152;21.032;2022-09-17T12:24:27;15.20;99.90
18613;DHT22;9436;52.152;21.032;2022-09-17T12:27:03;15.30;99.90
18613;DHT22;9436;52.152;21.032;2022-09-17T12:30:00;15.50;99.90
18613;DHT22;9436;52.152;21.032;2022-09-17T12:35:29;15.50;99.90
18613;DHT22;9436;52.152;21.032;2022-09-17T12:38:10;15.40;99.90
18613;DHT22;9436;52.152;21.032;2022-09-17T12:40:45;15.30;99.90
18613;DHT22;9436;52.152;21.032;2022-09-17T12:43:36;15.40;99.90
18613;DHT22;9436;52.152;21.032;2022-09-17T12:46:15;15.40;99.90
18613;DHT22;9436;52.152;21.032;2022-09-17T12:48:56;15.20;99.90
18613;DHT22;9436;52.152;21.032;2022-09-17T12:51:45;15.20;99.90
18613;DHT22;9436;52.152;21.032;2022-09-17T12:54:29;15.30;99.90
18613;DHT22;9436;52.152;21.032;2022-09-17T12:57:06;15.40;99.90
18613;DHT22;9436;52.152;21.032;2022-09-17T12:59:44;15.40;99.90
18613;DHT22;9436;52.152;21.032;2022-09-17T13:02:17;15.40;99.90
18613;DHT22;9436;52.152;21.032;2022-09-17T13:11:17;15.30;99.90
18613;DHT22;9436;52.152;21.032;2022-09-17T13:13:55;15.30;99.90
18613;DHT22;9436;52.152;21.032;2022-09-17T13:16:33;15.10;99.90
18613;DHT22;9436;52.152;21.032;2022-09-17T13:19:05;14.80;99.90
18613;DHT22;9436;52.152;21.032;2022-09-17T13:21:42;14.80;99.90
18613;DHT22;9436;52.152;21.032;2022-09-17T13:24:15;14.70;99.90
18613;DHT22;9436;52.152;21.032;2022-09-17T13:26:42;14.80;99.90
18613;DHT22;9436;52.152;21.032;2022-09-17T13:29:11;14.70;99.90
18613;DHT22;9436;52.152;21.032;2022-09-17T13:31:49;14.70;99.90
18613;DHT22;9436;52.152;21.032;2022-09-17T13:34:28;14.50;99.90
18613;DHT22;9436;52.152;21.032;2022-09-17T13:36:57;14.50;99.90
18613;DHT22;9436;52.152;21.032;2022-09-17T13:39:42;14.60;99.90
18613;DHT22;9436;52.152;21.032;2022-09-17T13:42:14;14.70;99.90
18613;DHT22;9436;52.152;21.032;2022-09-17T13:44:44;14.80;99.90
18613;DHT22;9436;52.152;21.032;2022-09-17T13:47:20;14.80;99.90
18613;DHT22;9436;52.152;21.032;2022-09-17T13:49:52;14.90;99.90
18613;DHT22;9436;52.152;21.032;2022-09-17T13:52:39;14.70;99.90
18613;DHT22;9436;52.152;21.032;2022-09-17T13:55:07;14.80;99.90
18613;DHT22;9436;52.152;21.032;2022-09-17T13:57:45;14.80;99.90
18613;DHT22;9436;52.152;21.032;2022-09-17T14:00:49;14.80;99.90
18613;DHT22;9436;52.152;21.032;2022-09-17T14:03:55;14.90;99.90
18613;DHT22;9436;52.152;21.032;2022-09-17T14:06:48;14.70;99.90
18613;DHT22;9436;52.152;21.032;2022-09-17T14:09:48;14.70;99.90
18613;DHT22;9436;52.152;21.032;2022-09-17T14:12:53;14.70;99.90
18613;DHT22;9436;52.152;21.032;2022-09-17T14:15:57;14.60;99.90
18613;DHT22;9436;52.152;21.032;2022-09-17T14:18:34;14.50;99.90
18613;DHT22;9436;52.152;21.032;2022-09-17T14:21:12;14.60;99.90
18613;DHT22;9436;52.152;21.032;2022-09-17T14:23:43;14.50;99.90
18613;DHT22;9436;52.152;21.032;2022-09-17T14:26:17;14.60;99.90
18613;DHT22;9436;52.152;21.032;2022-09-17T14:28:50;14.60;99.90
18613;DHT22;9436;52.152;21.032;2022-09-17T14:31:24;14.70;99.90
18613;DHT22;9436;52.152;21.032;2022-09-17T14:33:54;14.60;99.90
18613;DHT22;9436;52.152;21.032;2022-09-17T14:36:23;14.50;99.90
18613;DHT22;9436;52.152;21.032;2022-09-17T14:38:52;14.50;99.90
18613;DHT22;9436;52.152;21.032;2022-09-17T14:41:22;14.50;99.90
18613;DHT22;9436;52.152;21.032;2022-09-17T14:43:52;14.60;99.90
18613;DHT22;9436;52.152;21.032;2022-09-17T14:46:22;14.50;99.90
18613;DHT22;9436;52.152;21.032;2022-09-17T14:48:50;14.50;99.90
18613;DHT22;9436;52.152;21.032;2022-09-17T14:51:27;14.50;99.90
18613;DHT22;9436;52.152;21.032;2022-09-17T14:54:18;14.60;99.90
18613;DHT22;9436;52.152;21.032;2022-09-17T14:56:49;14.60;99.90
18613;DHT22;9436;52.152;21.032;2022-09-17T14:59:22;14.50;99.90
18613;DHT22;9436;52.152;21.032;2022-09-17T15:01:51;14.70;99.90
18613;DHT22;9436;52.152;21.032;2022-09-17T15:04:23;14.80;99.90
18613;DHT22;9436;52.152;21.032;2022-09-17T15:06:52;14.80;99.90
18613;DHT22;9436;52.152;21.032;2022-09-17T15:09:31;14.80;99.90
18613;DHT22;9436;52.152;21.032;2022-09-17T15:11:59;14.70;99.90
18613;DHT22;9436;52.152;21.032;2022-09-17T15:14:28;14.70;99.90
18613;DHT22;9436;52.152;21.032;2022-09-17T15:16:58;14.80;99.90
18613;DHT22;9436;52.152;21.032;2022-09-17T15:19:30;14.70;99.90
18613;DHT22;9436;52.152;21.032;2022-09-17T15:22:05;14.60;99.90
18613;DHT22;9436;52.152;21.032;2022-09-17T15:24:40;14.60;99.90
18613;DHT22;9436;52.152;21.032;2022-09-17T15:27:12;14.60;99.90
18613;DHT22;9436;52.152;21.032;2022-09-17T15:29:42;14.70;99.90
18613;DHT22;9436;52.152;21.032;2022-09-17T15:32:11;14.80;99.90
18613;DHT22;9436;52.152;21.032;2022-09-17T15:34:39;14.80;99.90
18613;DHT22;9436;52.152;21.032;2022-09-17T15:37:17;14.90;99.90
18613;DHT22;9436;52.152;21.032;2022-09-17T15:39:48;14.80;99.90
18613;DHT22;9436;52.152;21.032;2022-09-17T15:42:22;14.80;99.90
18613;DHT22;9436;52.152;21.032;2022-09-17T15:44:52;14.80;99.90
18613;DHT22;9436;52.152;21.032;2022-09-17T15:47:49;14.80;99.90
18613;DHT22;9436;52.152;21.032;2022-09-17T15:50:18;14.80;99.90
18613;DHT22;9436;52.152;21.032;2022-09-17T15:52:47;14.80;99.90
18613;DHT22;9436;52.152;21.032;2022-09-17T15:55:29;14.80;99.90
18613;DHT22;9436;52.152;21.032;2022-09-17T15:57:57;14.70;99.90
18613;DHT22;9436;52.152;21.032;2022-09-17T16:00:25;14.80;99.90
18613;DHT22;9436;52.152;21.032;2022-09-17T16:02:52;14.80;99.90
18613;DHT22;9436;52.152;21.032;2022-09-17T16:05:46;14.90;99.90
18613;DHT22;9436;52.152;21.032;2022-09-17T16:08:32;14.70;99.90
18613;DHT22;9436;52.152;21.032;2022-09-17T16:11:00;14.70;99.90
18613;DHT22;9436;52.152;21.032;2022-09-17T16:13:27;14.50;99.90
18613;DHT22;9436;52.152;21.032;2022-09-17T16:15:54;14.40;99.90
18613;DHT22;9436;52.152;21.032;2022-09-17T16:18:21;14.40;99.90
18613;DHT22;9436;52.152;21.032;2022-09-17T16:20:48;14.40;99.90
18613;DHT22;9436;52.152;21.032;2022-09-17T16:23:15;14.40;99.90
18613;DHT22;9436;52.152;21.032;2022-09-17T16:25:44;14.30;99.90
18613;DHT22;9436;52.152;21.032;2022-09-17T16:28:12;14.40;99.90